Time;durP1;ratioP1;P1;durP2;ratioP2;P2;SDS_P1;SDS_P2;PMS_P1;PMS_P2;Temp;Humidity;BMP_temperature;BMP_pressure;BME280_temperature;BME280_humidity;BME280_pressure;Samples;Min_cycle;Max_cycle;Signal;HPM_P1;HPM_P2
2023/11/19 00:02:11;;;;;;;1.50;0.95;;;12.70;88.60;;;;;;5035382;28;20021;-79
2023/11/19 00:04:40;;;;;;;1.13;0.90;;;12.70;88.70;;;;;;5017837;28;20059;-80
2023/11/19 00:07:07;;;;;;;1.23;0.80;;;12.70;88.60;;;;;;5017425;28;20075;-80
2023/11/19 00:09:37;;;;;;;1.75;0.93;;;12.70;88.60;;;;;;5017784;28;20060;-80
2023/11/19 00:12:04;;;;;;;1.17;0.85;;;12.70;88.60;;;;;;5017397;28;20399;-79
2023/11/19 00:14:29;;;;;;;1.13;0.73;;;12.70;88.60;;;;;;5017668;28;20040;-78
2023/11/19 00:16:55;;;;;;;1.42;0.90;;;12.70;88.70;;;;;;5017193;28;20025;-79
2023/11/19 00:19:21;;;;;;;1.02;0.80;;;12.70;88.70;;;;;;5017392;28;20033;-80
2023/11/19 00:21:46;;;;;;;0.98;0.70;;;12.70;88.80;;;;;;5017269;28;20049;-79
2023/11/19 00:24:12;;;;;;;1.10;0.88;;;12.70;88.90;;;;;;5017234;28;20075;-79
2023/11/19 00:26:38;;;;;;;1.73;0.90;;;12.70;88.70;;;;;;5016933;28;20536;-80
2023/11/19 00:29:04;;;;;;;1.10;0.88;;;12.70;88.70;;;;;;5017366;28;20112;-80
2023/11/19 00:31:30;;;;;;;0.77;0.70;;;12.70;88.80;;;;;;5016929;28;20113;-80
2023/11/19 00:33:55;;;;;;;0.90;0.80;;;12.70;88.80;;;;;;5017267;28;20108;-80
2023/11/19 00:36:21;;;;;;;1.45;1.00;;;12.70;88.70;;;;;;5017173;28;20053;-79
2023/11/19 00:38:46;;;;;;;0.77;0.70;;;12.70;88.90;;;;;;5016965;28;20022;-80
2023/11/19 00:41:12;;;;;;;1.20;0.80;;;12.70;88.90;;;;;;5016869;28;20053;-79
2023/11/19 00:43:38;;;;;;;1.17;0.90;;;12.70;88.90;;;;;;5016947;28;20048;-79
2023/11/19 00:46:06;;;;;;;1.20;0.88;;;12.70;88.90;;;;;;5034525;28;20052;-78
2023/11/19 00:48:32;;;;;;;0.75;0.70;;;12.70;88.90;;;;;;5034382;28;20018;-77
2023/11/19 00:50:57;;;;;;;1.05;0.80;;;12.70;88.90;;;;;;5016946;28;20022;-79
2023/11/19 00:53:23;;;;;;;1.42;0.90;;;12.70;88.90;;;;;;5016958;28;20024;-79
2023/11/19 00:55:48;;;;;;;0.88;0.73;;;12.70;89.00;;;;;;5016708;28;20028;-80
2023/11/19 00:58:14;;;;;;;0.88;0.80;;;12.70;88.80;;;;;;5016530;28;20031;-79
2023/11/19 01:00:39;;;;;;;1.02;0.80;;;12.70;89.00;;;;;;5016678;28;20038;-79
2023/11/19 01:03:07;;;;;;;0.75;0.65;;;12.70;88.90;;;;;;5016500;28;20021;-78
2023/11/19 01:05:32;;;;;;;0.90;0.70;;;12.70;89.00;;;;;;5034075;28;20368;-79
2023/11/19 01:07:58;;;;;;;1.00;0.90;;;12.70;89.50;;;;;;5014856;28;20116;-79
2023/11/19 01:10:24;;;;;;;1.23;0.80;;;12.70;89.00;;;;;;5015878;28;20025;-79
2023/11/19 01:12:50;;;;;;;1.02;0.80;;;12.70;89.00;;;;;;5016115;28;20032;-79
2023/11/19 01:15:18;;;;;;;1.20;0.80;;;12.70;89.00;;;;;;5016377;28;20033;-79
2023/11/19 01:17:44;;;;;;;1.33;0.60;;;12.70;89.00;;;;;;5015018;28;20052;-79
2023/11/19 01:20:12;;;;;;;0.75;0.73;;;12.70;89.10;;;;;;5015760;28;20063;-79
2023/11/19 01:22:37;;;;;;;1.02;0.80;;;12.70;89.10;;;;;;5019020;28;20031;-80
2023/11/19 01:25:05;;;;;;;0.73;0.73;;;12.70;89.10;;;;;;5012704;28;20026;-78
2023/11/19 01:27:30;;;;;;;1.17;0.73;;;12.70;89.10;;;;;;5013515;28;20443;-79
2023/11/19 01:29:56;;;;;;;0.88;0.70;;;12.70;89.10;;;;;;5012625;28;20022;-80
2023/11/19 01:32:23;;;;;;;1.67;0.80;;;12.70;89.10;;;;;;5012792;28;20432;-79
2023/11/19 01:34:49;;;;;;;1.10;0.80;;;12.70;89.20;;;;;;5012478;28;20025;-79
2023/11/19 01:37:15;;;;;;;1.02;0.77;;;12.70;89.10;;;;;;5012693;28;20026;-79
2023/11/19 01:39:44;;;;;;;1.30;0.90;;;12.70;89.10;;;;;;5012705;28;20061;-79
2023/11/19 01:42:09;;;;;;;0.65;0.65;;;12.70;89.20;;;;;;4996175;28;20748;-80
2023/11/19 01:44:35;;;;;;;0.90;0.70;;;12.70;89.10;;;;;;5012596;28;20180;-79
2023/11/19 01:47:01;;;;;;;1.00;0.70;;;12.70;89.70;;;;;;5012368;28;20021;-78
2023/11/19 01:49:27;;;;;;;1.08;0.80;;;12.70;89.20;;;;;;5030144;28;20060;-80
2023/11/19 01:51:53;;;;;;;1.77;0.80;;;12.70;89.10;;;;;;5015685;28;20049;-79
2023/11/19 01:54:18;;;;;;;1.17;0.88;;;12.70;89.10;;;;;;5015794;28;20037;-80
2023/11/19 01:56:44;;;;;;;1.10;0.80;;;12.70;89.20;;;;;;5015395;28;20064;-81
2023/11/19 01:59:13;;;;;;;1.15;0.70;;;12.70;89.20;;;;;;5032144;28;20022;-79
2023/11/19 02:01:39;;;;;;;1.10;0.85;;;12.70;89.20;;;;;;5015360;28;20032;-80
2023/11/19 02:04:07;;;;;;;0.85;0.77;;;12.70;89.20;;;;;;5015343;28;20022;-79
2023/11/19 02:06:34;;;;;;;1.27;0.77;;;12.70;89.10;;;;;;5014972;28;20698;-79
2023/11/19 02:09:00;;;;;;;1.00;0.80;;;12.70;89.20;;;;;;5015091;28;20025;-80
2023/11/19 02:11:29;;;;;;;1.20;0.85;;;12.70;89.20;;;;;;5015511;28;20017;-80
2023/11/19 02:13:58;;;;;;;1.13;0.90;;;12.70;89.20;;;;;;5015420;28;20025;-80
2023/11/19 02:16:23;;;;;;;1.52;0.90;;;12.70;89.20;;;;;;5015277;28;20025;-79
2023/11/19 02:18:49;;;;;;;1.00;0.70;;;12.70;89.20;;;;;;5014634;28;20503;-79
2023/11/19 02:21:15;;;;;;;1.17;0.88;;;12.70;89.20;;;;;;5015442;28;20018;-80
2023/11/19 02:23:41;;;;;;;1.38;0.90;;;12.70;89.20;;;;;;5014951;28;20022;-80
2023/11/19 02:26:39;;;;;;;1.00;0.82;;;12.70;89.30;;;;;;5031686;28;20052;-79
2023/11/19 02:29:06;;;;;;;1.10;0.80;;;12.70;89.20;;;;;;5015140;28;20453;-80
2023/11/19 02:31:32;;;;;;;1.00;0.80;;;12.70;89.20;;;;;;5015085;28;20025;-79
2023/11/19 02:34:00;;;;;;;1.10;0.80;;;12.70;89.20;;;;;;5032963;28;20017;-79
2023/11/19 02:36:25;;;;;;;1.13;0.80;;;12.70;89.30;;;;;;5014776;28;20180;-77
2023/11/19 02:38:51;;;;;;;1.00;0.88;;;12.70;89.20;;;;;;5014864;28;20133;-80
2023/11/19 02:41:16;;;;;;;0.90;0.75;;;12.70;89.30;;;;;;5014986;28;20068;-80
2023/11/19 02:43:42;;;;;;;0.63;0.63;;;12.70;89.20;;;;;;5014961;28;20462;-80
2023/11/19 02:46:08;;;;;;;1.00;0.90;;;12.70;89.30;;;;;;5014955;28;20021;-80
2023/11/19 02:48:37;;;;;;;1.10;0.82;;;12.70;89.20;;;;;;5014277;28;20017;-80
2023/11/19 02:51:09;;;;;;;0.98;0.88;;;12.70;89.20;;;;;;5014671;28;20607;-78
2023/11/19 02:53:35;;;;;;;1.10;0.90;;;12.70;89.20;;;;;;5032490;28;20185;-80
2023/11/19 02:56:11;;;;;;;1.13;1.00;;;12.70;89.20;;;;;;5014947;28;20068;-79
2023/11/19 02:58:37;;;;;;;1.17;0.98;;;12.70;89.20;;;;;;5014290;28;20491;-79
2023/11/19 03:01:12;;;;;;;1.08;0.90;;;12.70;89.20;;;;;;5014273;28;20025;-79
2023/11/19 03:03:40;;;;;;;0.70;0.70;;;12.70;89.20;;;;;;5014608;28;20055;-78
2023/11/19 03:06:06;;;;;;;1.15;0.90;;;12.70;89.30;;;;;;5014559;28;20121;-79
2023/11/19 03:08:33;;;;;;;1.00;0.90;;;12.70;89.20;;;;;;5031823;28;20032;-80
2023/11/19 03:10:59;;;;;;;1.20;0.90;;;12.70;89.20;;;;;;5006974;28;20503;-79
2023/11/19 03:13:24;;;;;;;0.98;0.80;;;12.70;89.20;;;;;;5012502;28;20054;-80
2023/11/19 03:15:50;;;;;;;1.00;0.80;;;12.70;89.30;;;;;;5017063;28;20400;-79
2023/11/19 03:18:15;;;;;;;1.20;0.80;;;12.70;89.30;;;;;;5013821;28;20034;-80
2023/11/19 03:20:41;;;;;;;1.13;0.80;;;12.70;89.20;;;;;;5014325;28;20022;-79
2023/11/19 03:23:06;;;;;;;1.02;0.90;;;12.70;89.20;;;;;;5014327;28;20060;-78
2023/11/19 03:25:36;;;;;;;1.63;0.93;;;12.70;89.20;;;;;;5030829;28;20026;-79
2023/11/19 03:28:03;;;;;;;1.13;0.98;;;12.70;89.30;;;;;;5030515;28;20053;-79
2023/11/19 03:30:29;;;;;;;0.95;0.80;;;12.70;89.20;;;;;;5015239;28;20033;-79
2023/11/19 03:32:56;;;;;;;0.80;0.80;;;12.70;89.20;;;;;;5036282;28;20438;-80
2023/11/19 03:35:22;;;;;;;1.55;1.00;;;12.70;89.30;;;;;;5035807;28;20025;-79
2023/11/19 03:37:48;;;;;;;1.10;0.90;;;12.70;89.30;;;;;;5017885;28;20666;-80
2023/11/19 03:40:14;;;;;;;1.15;0.90;;;12.70;89.30;;;;;;5034598;28;20112;-80
2023/11/19 03:42:40;;;;;;;1.30;0.80;;;12.70;89.20;;;;;;5034561;28;20116;-79
2023/11/19 03:45:08;;;;;;;1.23;1.05;;;12.70;89.20;;;;;;5035839;28;20093;-80
2023/11/19 03:47:34;;;;;;;1.27;0.90;;;12.70;89.20;;;;;;5017762;28;20029;-77
2023/11/19 03:50:00;;;;;;;1.60;0.90;;;12.70;89.20;;;;;;5018194;28;20053;-80
2023/11/19 03:52:26;;;;;;;1.10;0.88;;;12.70;89.20;;;;;;5034386;28;20061;-80
2023/11/19 03:54:53;;;;;;;1.95;0.90;;;12.70;89.20;;;;;;5034518;28;20025;-80
2023/11/19 03:57:18;;;;;;;1.45;1.00;;;12.70;89.20;;;;;;5034161;28;20129;-80
2023/11/19 03:59:44;;;;;;;1.42;0.90;;;12.70;89.20;;;;;;5034312;28;20025;-80
2023/11/19 04:02:10;;;;;;;1.02;0.93;;;12.70;89.20;;;;;;5035455;28;20491;-80
2023/11/19 04:04:35;;;;;;;1.60;1.00;;;12.70;89.30;;;;;;5034349;28;20018;-80
2023/11/19 04:07:03;;;;;;;1.13;0.90;;;12.70;89.20;;;;;;5034046;28;20025;-80
2023/11/19 04:09:28;;;;;;;1.27;0.93;;;12.70;89.20;;;;;;5033961;28;20021;-79
2023/11/19 04:11:54;;;;;;;1.23;0.90;;;12.70;89.20;;;;;;5033995;28;20083;-80
2023/11/19 04:14:19;;;;;;;1.10;0.90;;;12.70;89.20;;;;;;5033953;28;20044;-79
2023/11/19 04:16:45;;;;;;;2.10;1.08;;;12.70;89.20;;;;;;5033812;28;20026;-80
2023/11/19 04:19:11;;;;;;;1.10;0.93;;;12.70;89.10;;;;;;5033989;28;20026;-79
2023/11/19 04:21:37;;;;;;;1.20;0.90;;;12.70;89.20;;;;;;5033846;28;20043;-80
2023/11/19 04:24:02;;;;;;;1.23;0.98;;;12.70;89.30;;;;;;5033874;28;20021;-79
2023/11/19 04:26:28;;;;;;;1.00;0.90;;;12.70;89.30;;;;;;5034601;28;20025;-77
2023/11/19 04:28:53;;;;;;;1.10;0.98;;;12.70;89.20;;;;;;5033764;28;20544;-79
2023/11/19 04:31:19;;;;;;;1.10;0.82;;;12.70;89.30;;;;;;5033656;28;20021;-79
2023/11/19 04:33:45;;;;;;;1.35;1.00;;;12.70;89.30;;;;;;5035014;28;20029;-79
2023/11/19 04:36:11;;;;;;;1.20;0.90;;;12.70;89.20;;;;;;5033654;28;20021;-80
2023/11/19 04:38:38;;;;;;;1.33;0.98;;;12.70;89.20;;;;;;5033517;28;20033;-80
2023/11/19 04:41:06;;;;;;;1.10;0.95;;;12.70;89.30;;;;;;5017090;28;20526;-80
2023/11/19 04:43:32;;;;;;;1.73;0.90;;;12.70;89.30;;;;;;5033435;28;20036;-79
2023/11/19 04:45:58;;;;;;;1.20;1.00;;;12.70;89.30;;;;;;5033445;28;20438;-80
2023/11/19 04:48:23;;;;;;;1.05;0.93;;;12.70;89.20;;;;;;5016778;28;20026;-80
2023/11/19 04:50:51;;;;;;;1.67;0.90;;;12.70;89.20;;;;;;5032954;28;20022;-79
2023/11/19 04:53:17;;;;;;;1.00;0.90;;;12.70;89.20;;;;;;5033235;28;20022;-80
2023/11/19 04:55:42;;;;;;;0.82;0.82;;;12.70;89.20;;;;;;5033378;28;20567;-80
2023/11/19 04:58:08;;;;;;;1.00;0.90;;;12.70;89.30;;;;;;5033093;28;20032;-80
2023/11/19 05:00:33;;;;;;;2.00;1.05;;;12.70;89.20;;;;;;5033199;28;20041;-80
2023/11/19 05:02:59;;;;;;;1.38;0.90;;;12.70;89.20;;;;;;5032763;28;20029;-79
2023/11/19 05:05:24;;;;;;;1.80;0.98;;;12.70;89.20;;;;;;5033013;28;20018;-80
2023/11/19 05:07:50;;;;;;;1.55;0.90;;;12.70;89.20;;;;;;5034007;28;20022;-80
2023/11/19 05:10:15;;;;;;;1.10;1.00;;;12.70;89.20;;;;;;5033337;28;20025;-79
2023/11/19 05:12:41;;;;;;;1.75;1.00;;;12.70;89.20;;;;;;5032862;28;20138;-80
2023/11/19 05:15:07;;;;;;;1.10;0.95;;;12.70;89.20;;;;;;5031982;28;20021;-79
2023/11/19 05:17:33;;;;;;;1.05;0.90;;;12.70;89.20;;;;;;5015978;28;20037;-79
2023/11/19 05:19:59;;;;;;;1.02;0.80;;;12.70;89.30;;;;;;5034149;28;20514;-80
2023/11/19 05:22:25;;;;;;;1.15;0.75;;;12.70;89.30;;;;;;5016412;28;20116;-78
2023/11/19 05:24:51;;;;;;;1.25;1.00;;;12.70;89.30;;;;;;5016557;28;20025;-80
2023/11/19 05:27:17;;;;;;;1.42;0.90;;;12.70;89.30;;;;;;5014638;28;20091;-81
2023/11/19 05:29:43;;;;;;;1.67;1.08;;;12.70;89.30;;;;;;5016050;28;20038;-80
2023/11/19 05:32:09;;;;;;;1.20;0.85;;;12.70;89.20;;;;;;5033833;28;20021;-80
2023/11/19 05:34:34;;;;;;;1.13;0.77;;;12.70;89.30;;;;;;5016028;28;20033;-80
2023/11/19 05:37:00;;;;;;;1.83;1.00;;;12.70;89.20;;;;;;5015749;28;20022;-79
2023/11/19 05:39:25;;;;;;;1.40;0.88;;;12.70;89.30;;;;;;5016056;28;20071;-80
2023/11/19 05:41:51;;;;;;;1.42;0.80;;;12.70;89.30;;;;;;5033771;28;20025;-80
2023/11/19 05:44:17;;;;;;;2.17;1.00;;;12.70;89.20;;;;;;5016066;28;20120;-80
2023/11/19 05:46:43;;;;;;;0.93;0.80;;;12.70;89.20;;;;;;5015772;28;20094;-79
2023/11/19 05:49:09;;;;;;;1.58;0.80;;;12.70;89.30;;;;;;5015765;28;20025;-80
2023/11/19 05:51:38;;;;;;;1.33;0.90;;;12.70;89.30;;;;;;5015843;28;20396;-80
2023/11/19 05:54:06;;;;;;;1.52;0.95;;;12.70;89.30;;;;;;5015018;28;20021;-80
2023/11/19 05:56:32;;;;;;;1.70;0.90;;;12.70;89.30;;;;;;5015644;28;20032;-79
2023/11/19 05:59:01;;;;;;;1.55;0.80;;;12.70;89.30;;;;;;5015517;28;20021;-80
2023/11/19 06:01:26;;;;;;;1.52;0.90;;;12.70;89.30;;;;;;5015683;28;20109;-80
2023/11/19 06:03:52;;;;;;;1.67;1.00;;;12.70;89.20;;;;;;5015602;28;20116;-80
2023/11/19 06:06:18;;;;;;;1.55;0.80;;;12.70;89.20;;;;;;5015584;28;20019;-80
2023/11/19 06:08:44;;;;;;;2.03;1.08;;;12.70;89.30;;;;;;5015315;28;20029;-80
2023/11/19 06:11:18;;;;;;;0.90;0.80;;;12.70;89.30;;;;;;5015552;28;20025;-80
2023/11/19 06:13:43;;;;;;;0.98;0.80;;;12.70;89.30;;;;;;5015454;28;20036;-80
2023/11/19 06:16:09;;;;;;;1.38;0.88;;;12.70;89.30;;;;;;5015704;28;20025;-79
2023/11/19 06:18:36;;;;;;;1.98;1.00;;;12.70;89.30;;;;;;5015056;28;20026;-80
2023/11/19 06:21:02;;;;;;;1.10;0.90;;;12.70;89.30;;;;;;5015306;28;20026;-80
2023/11/19 06:23:27;;;;;;;1.67;0.90;;;12.70;89.30;;;;;;5015229;28;20435;-80
2023/11/19 06:25:53;;;;;;;1.75;0.90;;;12.70;89.30;;;;;;5015339;28;20116;-80
2023/11/19 06:28:19;;;;;;;1.63;0.90;;;12.70;89.30;;;;;;5014661;28;20112;-78
2023/11/19 06:30:44;;;;;;;1.55;0.98;;;12.70;89.30;;;;;;5015055;28;20075;-80
2023/11/19 06:33:13;;;;;;;2.65;1.10;;;12.70;89.30;;;;;;5033118;28;20476;-80
2023/11/19 06:35:38;;;;;;;1.30;0.90;;;12.70;89.30;;;;;;5015313;28;20026;-80
2023/11/19 06:38:04;;;;;;;2.35;1.00;;;12.70;89.30;;;;;;5032423;28;20631;-80
2023/11/19 06:40:30;;;;;;;1.70;0.90;;;12.70;89.30;;;;;;5032623;28;20026;-80
2023/11/19 06:42:56;;;;;;;2.22;0.90;;;12.70;89.30;;;;;;5032552;28;20095;-80
2023/11/19 06:45:22;;;;;;;2.13;0.88;;;12.70;89.30;;;;;;5014945;28;20531;-80
2023/11/19 06:47:47;;;;;;;1.58;0.90;;;12.70;89.30;;;;;;5014725;28;20036;-79
2023/11/19 06:50:13;;;;;;;2.15;0.90;;;12.70;89.30;;;;;;5030805;28;20030;-80
2023/11/19 06:53:11;;;;;;;0.93;0.80;;;12.70;89.30;;;;;;5013000;28;20026;-82
2023/11/19 06:59:46;;;;;;;1.65;0.80;;;12.70;89.30;;;;;;4942193;29;20070;-81
2023/11/19 07:02:26;;;;;;;2.00;0.90;;;12.70;89.30;;;;;;4945645;29;20046;-80
2023/11/19 07:05:24;;;;;;;2.42;0.80;;;12.70;89.30;;;;;;4985515;28;20037;-81
2023/11/19 07:08:05;;;;;;;1.87;0.80;;;12.70;89.30;;;;;;4991236;28;20026;-81
2023/11/19 07:10:34;;;;;;;2.47;0.85;;;12.70;89.30;;;;;;4992110;28;20030;-80
2023/11/19 07:13:05;;;;;;;1.55;0.73;;;12.70;89.30;;;;;;5009753;28;20037;-78
2023/11/19 07:15:41;;;;;;;1.03;0.80;;;12.70;89.30;;;;;;5010074;28;20030;-79
2023/11/19 07:18:26;;;;;;;1.35;0.70;;;12.70;89.30;;;;;;5009878;28;20277;-82
2023/11/19 07:21:21;;;;;;;1.58;0.73;;;12.70;89.40;;;;;;4978313;28;20117;-81
2023/11/19 07:23:47;;;;;;;2.38;0.98;;;12.70;89.30;;;;;;4972594;28;20088;-80
2023/11/19 07:26:17;;;;;;;1.52;0.80;;;12.70;89.80;;;;;;4992393;28;20026;-80
2023/11/19 07:29:03;;;;;;;2.05;0.90;;;12.70;89.30;;;;;;5008727;28;20092;-79
2023/11/19 07:32:21;;;;;;;2.13;0.85;;;12.70;89.30;;;;;;5008560;28;20042;-81
2023/11/19 07:35:26;;;;;;;1.95;0.90;;;12.80;89.40;;;;;;5011366;28;20052;-81
2023/11/19 07:37:52;;;;;;;2.75;0.90;;;12.70;89.30;;;;;;5007733;28;20030;-79
2023/11/19 07:40:19;;;;;;;4.03;1.23;;;12.60;89.30;;;;;;4991971;28;20026;-82
2023/11/19 07:42:45;;;;;;;1.27;0.73;;;12.70;89.30;;;;;;4991511;28;20026;-81
2023/11/19 07:45:11;;;;;;;1.58;0.93;;;12.70;89.30;;;;;;5009819;28;20022;-78
2023/11/19 07:48:10;;;;;;;3.08;0.93;;;12.70;89.40;;;;;;4991138;28;20108;-81
2023/11/19 07:50:58;;;;;;;1.73;1.00;;;12.70;89.30;;;;;;5011500;28;20018;-81
2023/11/19 07:53:26;;;;;;;2.30;0.80;;;12.70;89.30;;;;;;5043770;28;20025;-82
2023/11/19 07:56:19;;;;;;;2.70;1.00;;;12.70;89.40;;;;;;5035470;28;20798;-79
2023/11/19 08:01:46;;;;;;;4.88;1.20;;;12.70;89.40;;;;;;5028359;28;20699;-81
2023/11/19 08:04:18;;;;;;;2.30;0.85;;;12.70;89.40;;;;;;5027434;28;20084;-81
2023/11/19 08:06:48;;;;;;;2.40;0.90;;;12.70;89.30;;;;;;5027738;28;20025;-81
2023/11/19 08:09:24;;;;;;;2.85;1.00;;;12.70;89.40;;;;;;5009885;28;20075;-80
2023/11/19 08:12:03;;;;;;;3.33;1.00;;;12.70;89.80;;;;;;5028555;28;20064;-79
2023/11/19 08:17:35;;;;;;;2.35;1.00;;;12.70;89.40;;;;;;5031863;28;20091;-81
2023/11/19 08:20:04;;;;;;;2.65;0.80;;;12.70;89.30;;;;;;5033457;28;20045;-80
2023/11/19 08:22:31;;;;;;;2.10;0.88;;;12.70;89.30;;;;;;5001666;28;20400;-81
2023/11/19 08:24:56;;;;;;;2.40;0.82;;;12.70;89.30;;;;;;5020607;28;20140;-80
2023/11/19 08:27:26;;;;;;;3.13;1.00;;;12.70;89.30;;;;;;5030364;28;20104;-79
2023/11/19 08:29:56;;;;;;;3.00;0.93;;;12.70;89.30;;;;;;5012484;28;20029;-80
2023/11/19 08:32:22;;;;;;;1.77;0.93;;;12.70;89.30;;;;;;5006519;28;20392;-80
2023/11/19 08:34:48;;;;;;;1.40;0.88;;;12.70;89.30;;;;;;5017939;28;20351;-80
2023/11/19 08:37:14;;;;;;;3.38;1.20;;;12.70;89.30;;;;;;5012109;28;20025;-79
2023/11/19 08:39:41;;;;;;;1.77;0.80;;;12.70;89.30;;;;;;5012271;28;20543;-81
2023/11/19 08:42:06;;;;;;;3.80;1.05;;;12.70;89.30;;;;;;5012356;28;20029;-81
2023/11/19 08:44:32;;;;;;;3.05;1.00;;;12.70;89.30;;;;;;5004807;28;20029;-81
2023/11/19 08:46:57;;;;;;;2.42;0.88;;;12.80;89.30;;;;;;5020895;28;20499;-78
2023/11/19 08:49:23;;;;;;;2.25;0.82;;;12.70;89.30;;;;;;5012425;28;20032;-80
2023/11/19 08:51:48;;;;;;;2.42;0.80;;;12.70;89.20;;;;;;5029544;28;20028;-81
2023/11/19 08:54:14;;;;;;;2.55;0.93;;;12.70;89.20;;;;;;5029943;28;20105;-81
2023/11/19 08:56:39;;;;;;;1.90;1.00;;;12.70;89.30;;;;;;5030214;28;20036;-80
2023/11/19 08:59:05;;;;;;;2.25;0.80;;;12.80;89.40;;;;;;5011681;28;20117;-80
2023/11/19 09:01:31;;;;;;;2.63;0.80;;;12.80;89.30;;;;;;5003558;28;20022;-81
2023/11/19 09:03:57;;;;;;;2.53;0.90;;;12.70;89.20;;;;;;5006712;28;20074;-80
2023/11/19 09:06:22;;;;;;;2.38;1.00;;;12.70;89.20;;;;;;5029580;28;20101;-79
2023/11/19 09:08:48;;;;;;;2.88;0.88;;;12.80;89.30;;;;;;5030032;28;20510;-80
2023/11/19 09:11:13;;;;;;;2.33;1.08;;;12.80;89.30;;;;;;5012268;28;20067;-81
2023/11/19 09:13:39;;;;;;;2.65;0.95;;;12.80;89.30;;;;;;5030033;28;20040;-81
2023/11/19 09:16:05;;;;;;;2.47;0.80;;;12.70;89.30;;;;;;5029547;28;20035;-81
2023/11/19 09:18:31;;;;;;;3.42;1.17;;;12.70;89.20;;;;;;5012414;28;20021;-81
2023/11/19 09:20:57;;;;;;;1.75;0.88;;;12.80;89.30;;;;;;5012495;28;20057;-81
2023/11/19 09:23:25;;;;;;;2.33;0.90;;;12.80;89.30;;;;;;5012213;28;20924;-78
2023/11/19 09:25:50;;;;;;;3.00;1.00;;;12.80;89.30;;;;;;5012849;28;20067;-82
2023/11/19 09:28:16;;;;;;;2.47;0.77;;;12.80;89.20;;;;;;5010581;28;20030;-80
2023/11/19 09:30:41;;;;;;;2.63;1.02;;;12.80;89.30;;;;;;5012765;28;20050;-80
2023/11/19 09:33:07;;;;;;;2.05;1.00;;;12.80;89.40;;;;;;5029561;28;20037;-80
2023/11/19 09:35:33;;;;;;;2.88;1.10;;;12.80;89.30;;;;;;5011619;28;20061;-80
2023/11/19 09:37:59;;;;;;;1.42;0.70;;;12.80;89.30;;;;;;5010788;28;20052;-79
2023/11/19 09:40:24;;;;;;;3.22;0.90;;;12.80;89.30;;;;;;5011404;28;20033;-80
2023/11/19 09:42:50;;;;;;;4.03;1.08;;;12.80;89.30;;;;;;5029242;28;20076;-80
2023/11/19 09:45:18;;;;;;;3.50;1.00;;;12.80;89.40;;;;;;5011891;28;20026;-79
2023/11/19 09:47:47;;;;;;;2.97;1.00;;;12.80;89.30;;;;;;5010586;28;20030;-81
2023/11/19 09:50:22;;;;;;;3.20;0.80;;;12.80;89.40;;;;;;5010203;28;20410;-80
2023/11/19 09:52:47;;;;;;;3.35;0.90;;;12.80;89.30;;;;;;5011274;28;20341;-81
2023/11/19 09:55:14;;;;;;;3.22;0.98;;;12.80;89.40;;;;;;5010613;28;20029;-78
2023/11/19 09:57:40;;;;;;;2.42;1.00;;;12.80;89.30;;;;;;5028256;28;20031;-79
2023/11/19 10:00:07;;;;;;;3.28;0.90;;;12.80;89.40;;;;;;5010814;28;20029;-80
2023/11/19 10:02:36;;;;;;;2.30;1.00;;;12.80;89.40;;;;;;5028302;28;20029;-77
2023/11/19 10:05:05;;;;;;;2.63;1.27;;;12.80;89.40;;;;;;5011430;28;20056;-79
2023/11/19 10:07:32;;;;;;;3.33;1.10;;;12.60;89.20;;;;;;5028730;28;20087;-80
2023/11/19 10:10:00;;;;;;;2.42;0.90;;;12.80;89.30;;;;;;5012619;28;20067;-81
2023/11/19 10:12:26;;;;;;;2.88;1.10;;;12.80;89.30;;;;;;5011505;28;20083;-79
2023/11/19 10:14:56;;;;;;;2.85;1.00;;;12.80;89.30;;;;;;5011493;28;20056;-81
2023/11/19 10:17:21;;;;;;;3.75;0.95;;;12.80;89.30;;;;;;5010533;28;20030;-80
2023/11/19 10:19:46;;;;;;;2.28;1.00;;;12.80;89.30;;;;;;5013847;28;20094;-81
2023/11/19 10:22:14;;;;;;;2.72;1.00;;;12.80;89.20;;;;;;5015215;28;20030;-80
2023/11/19 10:24:40;;;;;;;3.30;1.02;;;12.80;89.30;;;;;;5015388;28;20040;-80
2023/11/19 10:27:09;;;;;;;4.25;1.10;;;12.80;89.30;;;;;;5014711;28;20507;-80
2023/11/19 10:29:38;;;;;;;2.88;1.05;;;12.80;89.30;;;;;;5014715;28;20061;-80
2023/11/19 10:32:04;;;;;;;2.95;1.10;;;12.80;89.20;;;;;;5014895;28;20029;-81
2023/11/19 10:34:30;;;;;;;1.73;0.73;;;12.80;89.20;;;;;;5014754;28;20392;-81
2023/11/19 10:36:55;;;;;;;2.17;0.80;;;12.80;89.20;;;;;;5014633;28;20135;-79
2023/11/19 10:39:23;;;;;;;2.47;0.80;;;12.80;89.20;;;;;;5032311;28;20036;-81
2023/11/19 10:41:48;;;;;;;2.17;0.90;;;12.80;89.30;;;;;;5032607;28;20021;-80
2023/11/19 10:44:35;;;;;;;2.28;1.02;;;12.80;89.30;;;;;;5032580;28;20075;-80
2023/11/19 10:47:01;;;;;;;2.85;1.00;;;12.80;89.30;;;;;;5032246;28;20476;-80
2023/11/19 10:49:26;;;;;;;3.10;0.93;;;12.80;89.30;;;;;;5014656;28;20044;-80
2023/11/19 10:51:56;;;;;;;2.45;0.90;;;12.80;89.30;;;;;;5014774;28;20504;-80
2023/11/19 10:54:22;;;;;;;2.22;0.90;;;12.80;89.30;;;;;;5015034;28;20395;-81
2023/11/19 10:56:54;;;;;;;3.35;1.10;;;12.80;89.30;;;;;;5030762;28;20079;-80
2023/11/19 10:59:21;;;;;;;3.90;1.00;;;12.80;89.30;;;;;;5032008;28;20471;-80
2023/11/19 11:01:50;;;;;;;2.65;0.77;;;12.80;89.40;;;;;;5014724;28;20402;-81
2023/11/19 11:04:22;;;;;;;2.40;0.98;;;12.80;89.30;;;;;;5014858;28;19917;-80
2023/11/19 11:06:48;;;;;;;;;;;12.80;89.30;;;;;;5014861;28;20029;-80
2023/11/19 11:09:15;;;;;;;3.75;1.00;;;12.80;89.30;;;;;;5047504;28;19906;-82
2023/11/19 11:11:43;;;;;;;2.13;0.80;;;12.80;89.40;;;;;;5032075;28;20056;-81
2023/11/19 11:14:12;;;;;;;3.10;1.10;;;12.80;89.40;;;;;;5014461;28;20029;-78
2023/11/19 11:16:40;;;;;;;3.30;0.95;;;12.80;89.40;;;;;;5014032;28;20030;-80
2023/11/19 11:19:06;;;;;;;3.58;1.08;;;12.80;89.40;;;;;;5014271;28;20022;-80
2023/11/19 11:21:32;;;;;;;2.08;0.93;;;12.80;89.40;;;;;;5014889;28;20229;-80
2023/11/19 11:24:07;;;;;;;4.72;1.00;;;12.80;89.40;;;;;;5015892;28;20083;-80
2023/11/19 11:27:04;;;;;;;2.38;1.05;;;12.80;89.50;;;;;;5020143;28;20022;-81
2023/11/19 11:29:48;;;;;;;2.88;1.00;;;12.80;89.50;;;;;;5013607;28;20067;-79
2023/11/19 11:32:35;;;;;;;4.38;1.13;;;12.80;89.50;;;;;;5014296;28;20053;-80
2023/11/19 11:35:22;;;;;;;7.38;1.20;;;12.80;89.90;;;;;;5014104;28;20032;-80
2023/11/19 11:38:00;;;;;;;3.58;1.17;;;12.80;89.50;;;;;;5012442;28;20029;-81
2023/11/19 11:40:26;;;;;;;4.78;1.10;;;12.80;89.50;;;;;;5013409;28;20036;-78
2023/11/19 11:42:52;;;;;;;3.58;1.05;;;12.80;89.40;;;;;;5027972;28;20441;-78
2023/11/19 11:45:19;;;;;;;3.55;1.00;;;12.80;89.50;;;;;;5032732;28;20112;-78
2023/11/19 11:47:54;;;;;;;4.57;1.00;;;12.80;89.50;;;;;;5033663;28;20048;-78
2023/11/19 11:50:20;;;;;;;3.55;1.30;;;12.80;89.50;;;;;;5015346;28;20101;-80
2023/11/19 11:52:58;;;;;;;5.15;1.05;;;12.80;89.50;;;;;;5016423;28;20033;-80
2023/11/19 11:55:24;;;;;;;4.07;1.10;;;12.80;89.50;;;;;;5017765;28;20017;-80
2023/11/19 11:57:49;;;;;;;5.50;1.20;;;12.80;89.50;;;;;;5017476;28;20503;-80
2023/11/19 12:00:43;;;;;;;7.68;1.42;;;12.80;89.50;;;;;;5035149;28;20029;-80
2023/11/19 12:03:08;;;;;;;5.28;1.45;;;12.80;89.60;;;;;;5017345;28;20514;-80
2023/11/19 12:05:47;;;;;;;4.20;1.20;;;12.80;89.50;;;;;;5035268;28;20065;-79
2023/11/19 12:08:20;;;;;;;4.18;1.20;;;12.80;89.50;;;;;;5017229;28;20048;-81
2023/11/19 12:10:48;;;;;;;3.75;1.33;;;12.80;89.60;;;;;;5017595;28;20507;-81
2023/11/19 12:13:17;;;;;;;3.22;1.02;;;12.90;89.70;;;;;;5017674;28;20025;-80
2023/11/19 12:15:58;;;;;;;6.65;1.23;;;12.80;89.50;;;;;;5033830;28;20559;-80
2023/11/19 12:18:24;;;;;;;4.63;1.30;;;12.80;89.50;;;;;;5033432;28;20049;-80
2023/11/19 12:20:50;;;;;;;2.90;1.00;;;12.80;89.60;;;;;;5019097;28;20839;-81
2023/11/19 12:23:15;;;;;;;2.63;0.93;;;12.90;89.70;;;;;;5017401;28;20132;-80
2023/11/19 12:25:41;;;;;;;4.15;1.20;;;12.80;89.60;;;;;;5017186;28;20021;-78
2023/11/19 12:28:12;;;;;;;4.65;1.20;;;12.80;89.60;;;;;;5016930;28;20026;-79
2023/11/19 12:30:38;;;;;;;4.63;1.20;;;12.80;89.60;;;;;;5016927;28;20155;-79
2023/11/19 12:33:09;;;;;;;3.10;1.20;;;12.80;89.60;;;;;;5016985;28;20132;-78
2023/11/19 12:35:42;;;;;;;2.75;0.90;;;12.80;89.60;;;;;;5016953;28;20021;-79
2023/11/19 12:38:17;;;;;;;3.67;1.20;;;12.80;89.60;;;;;;5016828;28;20175;-78
2023/11/19 12:40:43;;;;;;;3.25;1.10;;;12.80;89.60;;;;;;5016802;28;20079;-78
2023/11/19 12:43:08;;;;;;;3.90;1.30;;;12.80;89.60;;;;;;5034249;28;20520;-79
2023/11/19 12:45:36;;;;;;;3.55;1.08;;;12.80;89.60;;;;;;5034391;28;20030;-79
2023/11/19 12:48:06;;;;;;;5.60;1.15;;;12.80;89.60;;;;;;5016429;28;20469;-79
2023/11/19 12:50:52;;;;;;;2.60;0.80;;;12.80;89.60;;;;;;5034293;28;20040;-78
2023/11/19 12:53:18;;;;;;;5.15;1.42;;;12.80;89.60;;;;;;5016486;28;20026;-79
2023/11/19 12:55:44;;;;;;;4.13;1.20;;;12.80;89.60;;;;;;5016522;28;20037;-79
2023/11/19 12:58:09;;;;;;;5.30;1.58;;;12.80;89.60;;;;;;5033854;28;20029;-79
2023/11/19 13:00:35;;;;;;;3.45;1.27;;;12.80;89.60;;;;;;5016491;28;20033;-79
2023/11/19 13:03:00;;;;;;;4.25;1.10;;;12.80;89.60;;;;;;5034192;28;20033;-80
2023/11/19 13:05:37;;;;;;;3.00;0.90;;;12.80;89.60;;;;;;5016745;28;20014;-79